createdAt,value
2023-06-07T00:00:09.668Z,17.31
2023-06-07T00:01:09.724Z,17.31
2023-06-07T00:02:09.722Z,17.33
2023-06-07T00:03:09.714Z,17.34
2023-06-07T00:04:09.855Z,17.38
2023-06-07T00:05:09.607Z,17.39
2023-06-07T00:06:09.602Z,17.38
2023-06-07T00:07:09.804Z,17.41
2023-06-07T00:08:09.570Z,17.42
2023-06-07T00:09:09.623Z,17.44
2023-06-07T00:10:09.549Z,17.44
2023-06-07T00:11:10.409Z,17.45
2023-06-07T00:12:09.524Z,17.45
2023-06-07T00:13:09.575Z,17.45
2023-06-07T00:14:09.523Z,17.46
2023-06-07T00:15:09.551Z,17.44
2023-06-07T00:16:09.537Z,17.44
2023-06-07T00:17:09.533Z,17.42
2023-06-07T00:18:09.619Z,17.42
2023-06-07T00:19:09.481Z,17.42
2023-06-07T00:20:09.440Z,17.42
2023-06-07T00:21:09.467Z,17.42
2023-06-07T00:22:09.439Z,17.42
2023-06-07T00:23:09.458Z,17.44
2023-06-07T00:24:09.488Z,17.44
2023-06-07T00:25:09.440Z,17.45
2023-06-07T00:26:09.414Z,17.44
2023-06-07T00:27:09.440Z,17.42
2023-06-07T00:28:09.365Z,17.42
2023-06-07T00:29:09.395Z,17.44
2023-06-07T00:30:09.334Z,17.42
2023-06-07T00:31:09.359Z,17.44
2023-06-07T00:32:09.331Z,17.44
2023-06-07T00:33:09.354Z,17.44
2023-06-07T00:34:09.318Z,17.45
2023-06-07T00:35:09.349Z,17.45
2023-06-07T00:36:09.299Z,17.42
2023-06-07T00:37:09.303Z,17.39
2023-06-07T00:38:09.278Z,17.38
2023-06-07T00:39:09.316Z,17.38
2023-06-07T00:40:09.266Z,17.38
2023-06-07T00:41:09.257Z,17.38
2023-06-07T00:42:09.229Z,17.39
2023-06-07T00:43:09.232Z,17.38
2023-06-07T00:44:09.221Z,17.41
2023-06-07T00:45:09.223Z,17.39
2023-06-07T00:46:09.184Z,17.41
2023-06-07T00:47:09.170Z,17.38
2023-06-07T00:48:09.243Z,17.39
2023-06-07T00:49:09.163Z,17.41
2023-06-07T00:50:09.170Z,17.41
2023-06-07T00:51:09.188Z,17.41
2023-06-07T00:52:09.139Z,17.39
2023-06-07T00:53:09.117Z,17.39
2023-06-07T00:54:09.113Z,17.41
2023-06-07T00:55:09.122Z,17.41
2023-06-07T00:56:09.085Z,17.41
2023-06-07T00:57:09.087Z,17.41
2023-06-07T00:58:09.095Z,17.41
2023-06-07T00:59:09.044Z,17.41
2023-06-07T01:00:09.056Z,17.41
2023-06-07T01:01:09.070Z,17.42
2023-06-07T01:02:09.091Z,17.42
2023-06-07T01:03:09.131Z,17.44
2023-06-07T01:04:09.067Z,17.42
2023-06-07T01:05:09.006Z,17.42
2023-06-07T01:06:09.012Z,17.44
2023-06-07T01:07:09.008Z,17.44
2023-06-07T01:08:08.977Z,17.42
2023-06-07T01:09:08.954Z,17.41
2023-06-07T01:10:08.932Z,17.42
2023-06-07T01:11:08.924Z,17.41
2023-06-07T01:12:08.908Z,17.41
2023-06-07T01:13:08.959Z,17.39
2023-06-07T01:14:08.900Z,17.38
2023-06-07T01:15:08.904Z,17.36
2023-06-07T01:16:08.891Z,17.34
2023-06-07T01:17:08.872Z,17.36
2023-06-07T01:18:08.906Z,17.34
2023-06-07T01:19:08.887Z,17.34
2023-06-07T01:20:08.855Z,17.33
2023-06-07T01:21:08.838Z,17.34
2023-06-07T01:22:08.806Z,17.33
2023-06-07T01:23:08.821Z,17.33
2023-06-07T01:24:08.862Z,17.33
2023-06-07T01:25:08.801Z,17.31
2023-06-07T01:26:08.769Z,17.31
2023-06-07T01:27:08.765Z,17.30
2023-06-07T01:28:08.770Z,17.29
2023-06-07T01:29:08.744Z,17.26
2023-06-07T01:30:08.737Z,17.23
2023-06-07T01:31:09.211Z,17.20
2023-06-07T01:32:08.823Z,17.11
2023-06-07T01:33:08.759Z,17.06
2023-06-07T01:34:08.712Z,17.08
2023-06-07T01:35:08.704Z,17.05
2023-06-07T01:36:08.685Z,17.06
2023-06-07T01:37:08.700Z,17.04
2023-06-07T01:38:08.744Z,17.02
2023-06-07T01:39:08.667Z,17.01
2023-06-07T01:40:08.643Z,16.99
2023-06-07T01:41:08.637Z,17.02
2023-06-07T01:42:08.635Z,17.04
2023-06-07T01:43:08.602Z,17.05
2023-06-07T01:44:08.597Z,17.05
2023-06-07T01:45:08.599Z,17.08
2023-06-07T01:46:08.625Z,17.08
2023-06-07T01:47:08.606Z,17.08
2023-06-07T01:48:08.600Z,17.08
2023-06-07T01:49:08.557Z,17.08
2023-06-07T01:50:08.541Z,17.08
2023-06-07T01:51:08.537Z,17.08
2023-06-07T01:52:08.549Z,17.11
2023-06-07T01:53:08.544Z,17.11
2023-06-07T01:54:08.511Z,17.11
2023-06-07T01:55:08.503Z,17.12
2023-06-07T01:56:08.488Z,17.14
2023-06-07T01:57:08.457Z,17.14
2023-06-07T01:58:08.476Z,17.14
2023-06-07T01:59:08.480Z,17.16
2023-06-07T02:00:08.421Z,17.15
2023-06-07T02:01:08.441Z,17.14
2023-06-07T02:02:08.415Z,17.05
2023-06-07T02:03:08.464Z,17.04
2023-06-07T02:04:08.455Z,16.97
2023-06-07T02:05:08.401Z,16.93
2023-06-07T02:06:08.383Z,16.93
2023-06-07T02:07:08.356Z,16.93
2023-06-07T02:08:08.357Z,16.91
2023-06-07T02:09:08.364Z,16.89
2023-06-07T02:10:08.338Z,16.89
2023-06-07T02:11:08.339Z,16.89
2023-06-07T02:12:08.312Z,16.89
2023-06-07T02:13:08.285Z,16.89
2023-06-07T02:14:08.300Z,16.87
2023-06-07T02:15:08.277Z,16.87
2023-06-07T02:16:08.270Z,16.86
2023-06-07T02:17:08.330Z,16.89
2023-06-07T02:18:08.302Z,16.87
2023-06-07T02:19:08.451Z,16.90
2023-06-07T02:20:08.231Z,16.93
2023-06-07T02:21:08.224Z,16.93
2023-06-07T02:22:08.224Z,16.97
2023-06-07T02:23:08.206Z,17.01
2023-06-07T02:24:08.292Z,17.02
2023-06-07T02:25:08.160Z,17.05
2023-06-07T02:26:08.172Z,17.05
2023-06-07T02:27:08.168Z,17.05
2023-06-07T02:28:08.145Z,17.04
2023-06-07T02:29:08.148Z,17.05
2023-06-07T02:30:08.122Z,17.05
2023-06-07T02:31:08.186Z,17.05
2023-06-07T02:32:08.104Z,17.02
2023-06-07T02:33:08.264Z,17.02
2023-06-07T02:34:08.096Z,17.01
2023-06-07T02:35:08.082Z,17.01
2023-06-07T02:36:08.072Z,16.99
2023-06-07T02:37:08.055Z,17.01
2023-06-07T02:38:08.029Z,17.01
2023-06-07T02:39:08.047Z,17.02
2023-06-07T02:40:08.021Z,17.01
2023-06-07T02:41:07.995Z,17.01
2023-06-07T02:42:08.002Z,16.99
2023-06-07T02:43:07.984Z,16.99
2023-06-07T02:44:08.073Z,16.99
2023-06-07T02:45:07.981Z,17.01
2023-06-07T02:46:07.973Z,17.01
2023-06-07T02:47:08.000Z,16.99
2023-06-07T02:48:07.999Z,17.01
2023-06-07T02:49:07.939Z,16.96
2023-06-07T02:50:07.962Z,16.97
2023-06-07T02:51:07.916Z,16.94
2023-06-07T02:52:07.921Z,16.96
2023-06-07T02:53:07.872Z,16.94
2023-06-07T02:54:07.872Z,16.91
2023-06-07T02:55:07.870Z,16.93
2023-06-07T02:56:07.911Z,16.91
2023-06-07T02:57:07.859Z,16.91
2023-06-07T02:58:07.837Z,16.90
2023-06-07T02:59:07.823Z,16.83
2023-06-07T03:00:07.875Z,16.71
2023-06-07T03:01:07.826Z,16.61
2023-06-07T03:02:07.925Z,16.58
2023-06-07T03:03:07.910Z,16.57
2023-06-07T03:04:07.774Z,16.56
2023-06-07T03:05:07.759Z,16.56
2023-06-07T03:06:07.766Z,16.57
2023-06-07T03:07:07.738Z,16.56
2023-06-07T03:08:07.725Z,16.58
2023-06-07T03:09:07.725Z,16.60
2023-06-07T03:10:07.816Z,16.61
2023-06-07T03:11:07.725Z,16.61
2023-06-07T03:12:07.711Z,16.61
2023-06-07T03:13:07.700Z,16.65
2023-06-07T03:14:07.683Z,16.66
2023-06-07T03:15:07.664Z,16.69
2023-06-07T03:16:07.708Z,16.69
2023-06-07T03:17:07.661Z,16.71
2023-06-07T03:18:07.648Z,16.74
2023-06-07T03:19:07.617Z,16.74
2023-06-07T03:20:07.955Z,16.75
2023-06-07T03:21:07.610Z,16.76
2023-06-07T03:22:07.654Z,16.78
2023-06-07T03:23:07.574Z,16.79
2023-06-07T03:24:07.622Z,16.79
2023-06-07T03:25:07.569Z,16.79
2023-06-07T03:26:07.593Z,16.83
2023-06-07T03:27:07.630Z,16.83
2023-06-07T03:28:07.555Z,16.83
2023-06-07T03:29:07.506Z,16.83
2023-06-07T03:30:07.817Z,16.83
2023-06-07T03:31:07.514Z,16.84
2023-06-07T03:32:07.510Z,16.86
2023-06-07T03:33:07.509Z,16.86
2023-06-07T03:34:07.483Z,16.86
2023-06-07T03:35:07.476Z,16.84
2023-06-07T03:36:07.459Z,16.84
2023-06-07T03:37:07.435Z,16.86
2023-06-07T03:38:07.473Z,16.83
2023-06-07T03:39:07.432Z,16.83
2023-06-07T03:40:07.706Z,16.76
2023-06-07T03:41:07.385Z,16.76
2023-06-07T03:42:07.380Z,16.74
2023-06-07T03:43:07.424Z,16.72
2023-06-07T03:44:07.358Z,16.69
2023-06-07T03:45:07.374Z,16.68
2023-06-07T03:46:07.349Z,16.66
2023-06-07T03:47:07.344Z,16.65
2023-06-07T03:48:07.416Z,16.64
2023-06-07T03:49:07.410Z,16.64
2023-06-07T03:50:07.614Z,16.64
2023-06-07T03:51:07.309Z,16.65
2023-06-07T03:52:07.374Z,16.66
2023-06-07T03:53:07.288Z,16.68
2023-06-07T03:54:07.315Z,16.72
2023-06-07T03:55:07.265Z,16.72
2023-06-07T03:56:07.272Z,16.71
2023-06-07T03:57:07.228Z,16.74
2023-06-07T03:58:07.220Z,16.75
2023-06-07T03:59:07.230Z,16.75
2023-06-07T04:00:07.447Z,16.76
2023-06-07T04:01:07.187Z,16.78
2023-06-07T04:02:07.178Z,16.79
2023-06-07T04:03:07.250Z,16.78
2023-06-07T04:04:07.360Z,16.78
2023-06-07T04:05:07.218Z,16.79
2023-06-07T04:06:07.144Z,16.81
2023-06-07T04:07:07.121Z,16.83
2023-06-07T04:08:07.102Z,16.84
2023-06-07T04:09:07.113Z,16.81
2023-06-07T04:10:07.578Z,16.84
2023-06-07T04:11:07.092Z,16.83
2023-06-07T04:12:07.059Z,16.84
2023-06-07T04:13:07.070Z,16.84
2023-06-07T04:14:07.043Z,16.84
2023-06-07T04:15:07.077Z,16.83
2023-06-07T04:16:07.116Z,16.81
2023-06-07T04:17:07.044Z,16.81
2023-06-07T04:18:07.075Z,16.83
2023-06-07T04:19:07.023Z,16.83
2023-06-07T04:20:07.084Z,16.81
2023-06-07T04:21:06.989Z,16.81
2023-06-07T04:22:07.009Z,16.81
2023-06-07T04:23:06.969Z,16.83
2023-06-07T04:24:07.022Z,16.84
2023-06-07T04:25:06.944Z,16.83
2023-06-07T04:26:06.924Z,16.83
2023-06-07T04:27:06.927Z,16.84
2023-06-07T04:28:06.962Z,16.81
2023-06-07T04:29:06.967Z,16.83
2023-06-07T04:30:07.169Z,16.83
2023-06-07T04:31:06.883Z,16.84
2023-06-07T04:32:06.877Z,16.83
2023-06-07T04:33:06.940Z,16.83
2023-06-07T04:34:06.891Z,16.81
2023-06-07T04:35:06.861Z,16.83
2023-06-07T04:36:06.828Z,16.86
2023-06-07T04:37:06.822Z,16.86
2023-06-07T04:38:06.816Z,16.87
2023-06-07T04:39:06.808Z,16.89
2023-06-07T04:40:07.254Z,16.89
2023-06-07T04:41:06.804Z,16.90
2023-06-07T04:42:06.792Z,16.91
2023-06-07T04:43:06.761Z,16.91
2023-06-07T04:44:06.797Z,16.94
2023-06-07T04:45:06.756Z,16.96
2023-06-07T04:46:06.839Z,16.97
2023-06-07T04:47:10.757Z,16.91
2023-06-07T04:48:06.729Z,16.89
2023-06-07T04:49:06.695Z,16.86
2023-06-07T04:50:07.022Z,16.86
2023-06-07T04:51:06.729Z,16.84
2023-06-07T04:52:06.668Z,16.84
2023-06-07T04:53:06.661Z,16.79
2023-06-07T04:54:06.650Z,16.76
2023-06-07T04:55:06.640Z,16.75
2023-06-07T04:56:06.659Z,16.75
2023-06-07T04:57:06.616Z,16.76
2023-06-07T04:58:06.607Z,16.79
2023-06-07T04:59:06.587Z,16.76
2023-06-07T05:00:06.753Z,16.79
2023-06-07T05:01:06.588Z,16.81
2023-06-07T05:02:06.584Z,16.84
2023-06-07T05:03:06.651Z,16.86
2023-06-07T05:04:06.544Z,16.81
2023-06-07T05:05:06.572Z,16.83
2023-06-07T05:06:06.532Z,16.87
2023-06-07T05:07:06.531Z,16.86
2023-06-07T05:08:06.582Z,16.84
2023-06-07T05:09:06.503Z,16.86
2023-06-07T05:10:06.703Z,16.87
2023-06-07T05:11:06.471Z,16.86
2023-06-07T05:12:06.454Z,16.84
2023-06-07T05:13:06.454Z,16.84
2023-06-07T05:14:06.458Z,16.83
2023-06-07T05:15:06.428Z,16.86
2023-06-07T05:16:06.449Z,16.90
2023-06-07T05:17:06.412Z,16.91
2023-06-07T05:18:06.413Z,16.91
2023-06-07T05:19:06.635Z,16.94
2023-06-07T05:20:06.643Z,16.97
2023-06-07T05:21:06.373Z,16.99
2023-06-07T05:22:06.376Z,17.02
2023-06-07T05:23:06.359Z,17.05
2023-06-07T05:24:06.427Z,17.02
2023-06-07T05:25:06.365Z,17.05
2023-06-07T05:26:06.316Z,17.05
2023-06-07T05:27:06.308Z,17.06
2023-06-07T05:28:12.803Z,17.08
2023-06-07T05:29:06.286Z,17.11
2023-06-07T05:30:06.522Z,17.14
2023-06-07T05:31:06.729Z,17.15
2023-06-07T05:32:06.267Z,17.16
2023-06-07T05:33:06.361Z,17.19
2023-06-07T05:34:06.270Z,17.23
2023-06-07T05:35:06.217Z,17.23
2023-06-07T05:36:06.214Z,17.27
2023-06-07T05:37:06.215Z,17.29
2023-06-07T05:38:06.186Z,17.34
2023-06-07T05:39:06.197Z,17.33
2023-06-07T05:40:06.593Z,17.36
2023-06-07T05:41:06.170Z,17.38
2023-06-07T05:42:06.155Z,17.38
2023-06-07T05:43:06.159Z,17.36
2023-06-07T05:44:06.158Z,17.38
2023-06-07T05:45:06.144Z,17.38
2023-06-07T05:46:06.126Z,17.34
2023-06-07T05:47:06.137Z,17.34
2023-06-07T05:48:06.168Z,17.36
2023-06-07T05:49:06.163Z,17.38
2023-06-07T05:50:06.465Z,17.41
2023-06-07T05:51:08.344Z,17.39
2023-06-07T05:52:06.038Z,17.41
2023-06-07T05:53:06.066Z,17.42
2023-06-07T05:54:06.041Z,17.42
2023-06-07T05:55:06.034Z,17.42
2023-06-07T05:56:06.012Z,17.42
2023-06-07T05:57:06.004Z,17.41
2023-06-07T05:58:05.998Z,17.39
2023-06-07T05:59:05.992Z,17.41
2023-06-07T06:00:06.305Z,17.42
2023-06-07T06:01:05.970Z,17.45
2023-06-07T06:02:06.038Z,17.49
2023-06-07T06:03:05.972Z,17.51
2023-06-07T06:04:05.927Z,17.54
2023-06-07T06:05:06.024Z,17.57
2023-06-07T06:06:05.912Z,17.59
2023-06-07T06:07:05.903Z,17.63
2023-06-07T06:08:05.877Z,17.64
2023-06-07T06:09:05.872Z,17.68
2023-06-07T06:10:06.308Z,17.68
2023-06-07T06:11:05.894Z,17.76
2023-06-07T06:12:05.869Z,17.78
2023-06-07T06:13:05.828Z,17.82
2023-06-07T06:14:05.817Z,17.83
2023-06-07T06:15:05.828Z,17.86
2023-06-07T06:16:05.842Z,17.87
2023-06-07T06:17:05.846Z,17.89
2023-06-07T06:18:05.870Z,17.92
2023-06-07T06:19:05.784Z,17.92
2023-06-07T06:20:06.171Z,17.95
2023-06-07T06:21:05.989Z,17.98
2023-06-07T06:22:05.780Z,18.01
2023-06-07T06:23:05.729Z,18.05
2023-06-07T06:24:05.763Z,18.08
2023-06-07T06:25:05.701Z,18.11
2023-06-07T06:26:06.538Z,18.18
2023-06-07T06:27:05.717Z,18.19
2023-06-07T06:28:05.746Z,18.20
2023-06-07T06:29:05.668Z,18.23
2023-06-07T06:30:05.917Z,18.25
2023-06-07T06:31:05.708Z,18.28
2023-06-07T06:32:05.653Z,18.34
2023-06-07T06:33:05.725Z,18.37
2023-06-07T06:34:05.649Z,18.38
2023-06-07T06:35:05.631Z,18.40
2023-06-07T06:36:05.621Z,18.38
2023-06-07T06:37:05.582Z,18.41
2023-06-07T06:38:05.571Z,18.44
2023-06-07T06:39:05.613Z,18.45
2023-06-07T06:40:05.907Z,18.47
2023-06-07T06:41:07.558Z,18.49
2023-06-07T06:42:05.542Z,18.45
2023-06-07T06:43:05.551Z,18.47
2023-06-07T06:44:05.534Z,18.50
2023-06-07T06:45:05.525Z,18.50
2023-06-07T06:46:05.509Z,18.47
2023-06-07T06:47:05.579Z,18.49
2023-06-07T06:48:05.645Z,18.50
2023-06-07T06:49:12.815Z,18.52
2023-06-07T06:50:12.021Z,18.55
2023-06-07T06:51:05.472Z,18.55
2023-06-07T06:52:05.460Z,18.55
2023-06-07T06:53:05.474Z,18.58
2023-06-07T06:54:05.416Z,18.55
2023-06-07T06:55:05.421Z,18.55
2023-06-07T06:56:05.413Z,18.56
2023-06-07T06:57:05.467Z,18.58
2023-06-07T06:58:05.404Z,18.60
2023-06-07T06:59:05.393Z,18.60
2023-06-07T07:00:05.636Z,18.63
2023-06-07T07:01:05.362Z,18.66
2023-06-07T07:02:05.362Z,18.66
2023-06-07T07:03:05.416Z,18.71
2023-06-07T07:04:05.348Z,18.70
2023-06-07T07:05:05.319Z,18.68
2023-06-07T07:06:05.295Z,18.68
2023-06-07T07:07:05.301Z,18.70
2023-06-07T07:08:05.316Z,18.70
2023-06-07T07:09:05.353Z,18.66
2023-06-07T07:10:05.547Z,18.70
2023-06-07T07:11:05.262Z,18.70
2023-06-07T07:12:05.239Z,18.73
2023-06-07T07:13:05.288Z,18.71
2023-06-07T07:14:05.231Z,18.74
2023-06-07T07:15:05.211Z,18.77
2023-06-07T07:16:05.271Z,18.78
2023-06-07T07:17:05.251Z,18.81
2023-06-07T07:18:05.327Z,18.83
2023-06-07T07:19:05.213Z,18.86
2023-06-07T07:20:05.417Z,18.88
2023-06-07T07:21:05.164Z,18.86
2023-06-07T07:22:05.155Z,18.88
2023-06-07T07:23:05.165Z,18.88
2023-06-07T07:24:05.248Z,18.86
2023-06-07T07:25:05.124Z,18.88
2023-06-07T07:26:05.110Z,18.88
2023-06-07T07:27:05.085Z,18.86
2023-06-07T07:28:05.073Z,18.86
2023-06-07T07:29:05.096Z,18.89
2023-06-07T07:30:05.242Z,18.88
2023-06-07T07:31:05.036Z,18.89
2023-06-07T07:32:05.029Z,18.92
2023-06-07T07:33:05.084Z,18.93
2023-06-07T07:34:05.146Z,18.95
2023-06-07T07:35:05.131Z,18.98
2023-06-07T07:36:05.028Z,19.00
2023-06-07T07:37:05.004Z,19.04
2023-06-07T07:38:04.984Z,19.08
2023-06-07T07:39:04.962Z,19.09
2023-06-07T07:40:05.157Z,19.12
2023-06-07T07:41:04.946Z,19.14
2023-06-07T07:42:04.938Z,19.18
2023-06-07T07:43:04.942Z,19.21
2023-06-07T07:44:04.944Z,19.26
2023-06-07T07:45:04.982Z,19.29
2023-06-07T07:46:05.072Z,19.30
2023-06-07T07:47:04.889Z,19.33
2023-06-07T07:48:05.001Z,19.36
2023-06-07T07:49:04.880Z,19.37
2023-06-07T07:50:05.285Z,19.41
2023-06-07T07:51:04.855Z,19.47
2023-06-07T07:52:04.826Z,19.51
2023-06-07T07:53:04.836Z,19.55
2023-06-07T07:54:04.803Z,19.59
2023-06-07T07:55:05.036Z,19.56
2023-06-07T07:56:04.792Z,19.55
2023-06-07T07:57:04.785Z,19.58
2023-06-07T07:58:04.778Z,19.63
2023-06-07T07:59:04.775Z,19.66
2023-06-07T08:00:05.065Z,19.69
2023-06-07T08:01:04.787Z,19.70
2023-06-07T08:02:04.746Z,19.73
2023-06-07T08:03:04.913Z,19.76
2023-06-07T08:04:04.786Z,19.77
2023-06-07T08:05:04.840Z,19.81
2023-06-07T08:06:04.685Z,19.84
2023-06-07T08:07:04.689Z,19.84
2023-06-07T08:08:04.671Z,19.85
2023-06-07T08:09:04.653Z,19.85
2023-06-07T08:10:04.881Z,19.85
2023-06-07T08:11:04.636Z,19.88
2023-06-07T08:12:04.669Z,19.88
2023-06-07T08:13:04.623Z,19.89
2023-06-07T08:14:04.679Z,19.89
2023-06-07T08:15:04.605Z,19.94
2023-06-07T08:16:04.620Z,19.96
2023-06-07T08:17:04.581Z,19.96
2023-06-07T08:18:04.590Z,20.02
2023-06-07T08:19:04.646Z,20.03
2023-06-07T08:20:04.730Z,20.06
2023-06-07T08:21:04.535Z,20.10
2023-06-07T08:22:04.532Z,20.09
2023-06-07T08:23:04.573Z,20.10
2023-06-07T08:24:04.674Z,20.11
2023-06-07T08:25:04.502Z,20.16
2023-06-07T08:26:04.496Z,20.14
2023-06-07T08:27:04.480Z,20.16
2023-06-07T08:28:04.493Z,20.18
2023-06-07T08:29:04.452Z,20.22
2023-06-07T08:30:04.704Z,20.24
2023-06-07T08:31:04.472Z,20.25
2023-06-07T08:32:04.429Z,20.26
2023-06-07T08:33:04.456Z,20.28
2023-06-07T08:34:04.487Z,20.26
2023-06-07T08:35:04.375Z,20.31
2023-06-07T08:36:04.376Z,20.34
2023-06-07T08:37:04.380Z,20.36
2023-06-07T08:38:04.364Z,20.40
2023-06-07T08:39:04.358Z,20.44
2023-06-07T08:40:04.670Z,20.48
2023-06-07T08:41:04.344Z,20.51
2023-06-07T08:42:04.322Z,20.58
2023-06-07T08:43:04.294Z,20.60
2023-06-07T08:44:04.286Z,20.60
2023-06-07T08:45:04.286Z,20.65
2023-06-07T08:46:04.334Z,20.66
2023-06-07T08:47:04.343Z,20.69
2023-06-07T08:48:04.330Z,20.72
2023-06-07T08:49:04.248Z,20.72
2023-06-07T08:50:04.664Z,20.70
2023-06-07T08:51:04.459Z,20.70
2023-06-07T08:52:15.581Z,20.70
2023-06-07T08:53:04.222Z,20.69
2023-06-07T08:54:04.210Z,20.72
2023-06-07T08:55:04.170Z,20.74
2023-06-07T08:56:04.195Z,20.78
2023-06-07T08:57:04.259Z,20.78
2023-06-07T08:58:04.155Z,20.80
2023-06-07T08:59:04.133Z,20.84
2023-06-07T09:00:04.404Z,20.85
2023-06-07T09:01:04.189Z,20.88
2023-06-07T09:02:04.125Z,20.85
2023-06-07T09:03:04.254Z,20.82
2023-06-07T09:04:04.125Z,20.81
2023-06-07T09:05:04.092Z,20.87
2023-06-07T09:06:04.089Z,20.90
2023-06-07T09:07:04.061Z,20.93
2023-06-07T09:08:04.215Z,20.96
2023-06-07T09:09:04.089Z,21.02
2023-06-07T09:10:04.445Z,21.03
2023-06-07T09:11:04.027Z,21.09
2023-06-07T09:12:04.020Z,21.12
2023-06-07T09:13:03.997Z,21.18
2023-06-07T09:14:04.018Z,21.20
2023-06-07T09:15:03.992Z,21.15
2023-06-07T09:16:03.970Z,21.17
2023-06-07T09:17:04.115Z,21.18
2023-06-07T09:18:04.170Z,21.18
2023-06-07T09:19:03.927Z,21.22
2023-06-07T09:20:04.301Z,21.30
2023-06-07T09:21:03.914Z,21.33
2023-06-07T09:22:03.901Z,21.36
2023-06-07T09:23:03.881Z,21.39
2023-06-07T09:24:03.994Z,21.39
2023-06-07T09:25:04.320Z,21.45
2023-06-07T09:26:03.862Z,21.52
2023-06-07T09:27:03.847Z,21.61
2023-06-07T09:28:03.877Z,21.70
2023-06-07T09:29:03.829Z,21.77
2023-06-07T09:30:04.365Z,21.80
2023-06-07T09:31:03.855Z,21.91
2023-06-07T09:32:03.809Z,21.92
2023-06-07T09:33:03.837Z,21.93
2023-06-07T09:34:03.779Z,21.98
2023-06-07T09:35:03.997Z,22.00
2023-06-07T09:36:03.890Z,22.04
2023-06-07T09:37:03.783Z,22.06
2023-06-07T09:38:03.736Z,22.07
2023-06-07T09:39:03.728Z,22.08
2023-06-07T09:40:04.019Z,22.15
2023-06-07T09:41:03.733Z,22.18
2023-06-07T09:42:03.750Z,22.15
2023-06-07T09:43:03.686Z,22.23
2023-06-07T09:44:03.680Z,22.25
2023-06-07T09:45:03.715Z,22.26
2023-06-07T09:46:03.755Z,22.25
2023-06-07T09:47:04.987Z,22.20
2023-06-07T09:48:03.777Z,22.14
2023-06-07T09:49:03.711Z,22.13
2023-06-07T09:50:03.898Z,22.14
2023-06-07T09:51:03.611Z,22.14
2023-06-07T09:52:03.661Z,22.15
2023-06-07T09:53:03.610Z,22.15
2023-06-07T09:54:03.652Z,22.17
2023-06-07T09:55:04.115Z,22.18
2023-06-07T09:56:03.556Z,22.18
2023-06-07T09:57:03.565Z,22.17
2023-06-07T09:58:03.540Z,22.20
2023-06-07T09:59:03.712Z,22.22
2023-06-07T10:00:04.061Z,22.22
2023-06-07T10:01:03.588Z,22.22
2023-06-07T10:02:03.491Z,22.22
2023-06-07T10:03:03.591Z,22.23
2023-06-07T10:04:03.558Z,22.23
2023-06-07T10:05:03.519Z,22.25
2023-06-07T10:06:03.447Z,22.18
2023-06-07T10:07:03.433Z,22.18
2023-06-07T10:08:03.441Z,22.17
2023-06-07T10:09:03.427Z,22.17
2023-06-07T10:10:04.369Z,22.20
2023-06-07T10:11:03.452Z,22.15
2023-06-07T10:12:03.430Z,22.14
2023-06-07T10:13:03.444Z,22.10
2023-06-07T10:14:03.383Z,22.13
2023-06-07T10:15:03.386Z,22.10
2023-06-07T10:16:04.222Z,22.10
2023-06-07T10:17:03.419Z,22.11
2023-06-07T10:18:03.382Z,22.13
2023-06-07T10:19:03.335Z,22.14
2023-06-07T10:20:03.984Z,22.11
2023-06-07T10:21:03.297Z,22.06
2023-06-07T10:22:03.366Z,22.06
2023-06-07T10:23:03.384Z,22.06
2023-06-07T10:24:03.354Z,22.08
2023-06-07T10:25:03.267Z,22.10
2023-06-07T10:26:03.254Z,22.14
2023-06-07T10:27:03.234Z,22.14
2023-06-07T10:28:03.260Z,22.15
2023-06-07T10:29:03.263Z,22.14
2023-06-07T10:30:03.414Z,22.15
2023-06-07T10:31:03.224Z,22.14
2023-06-07T10:32:03.213Z,22.14
2023-06-07T10:33:03.221Z,22.13
2023-06-07T10:34:03.166Z,22.13
2023-06-07T10:35:03.169Z,22.14
2023-06-07T10:36:03.166Z,22.17
2023-06-07T10:37:03.145Z,22.20
2023-06-07T10:38:03.122Z,22.23
2023-06-07T10:39:03.107Z,22.26
2023-06-07T10:40:03.363Z,22.29
2023-06-07T10:41:03.152Z,22.32
2023-06-07T10:42:03.145Z,22.30
2023-06-07T10:43:03.062Z,22.28
2023-06-07T10:44:03.065Z,22.29
2023-06-07T10:45:03.112Z,22.29
2023-06-07T10:46:03.070Z,22.30
2023-06-07T10:47:03.185Z,22.28
2023-06-07T10:48:03.064Z,22.30
2023-06-07T10:49:03.037Z,22.33
2023-06-07T10:50:03.001Z,22.35
2023-06-07T10:51:02.992Z,22.38
2023-06-07T10:52:02.994Z,22.41
2023-06-07T10:53:03.011Z,22.41
2023-06-07T10:54:02.960Z,22.38
2023-06-07T10:55:02.959Z,22.36
2023-06-07T10:56:02.941Z,22.35
2023-06-07T10:57:02.994Z,22.38
2023-06-07T10:58:02.921Z,22.39
2023-06-07T10:59:02.978Z,22.39
2023-06-07T11:00:03.318Z,22.43
2023-06-07T11:01:02.904Z,22.44
2023-06-07T11:02:03.064Z,22.45
2023-06-07T11:03:03.007Z,22.44
2023-06-07T11:04:03.046Z,22.47
2023-06-07T11:05:03.069Z,22.45
2023-06-07T11:06:03.004Z,22.47
2023-06-07T11:07:02.840Z,22.44
2023-06-07T11:08:02.824Z,22.45
2023-06-07T11:09:02.806Z,22.45
2023-06-07T11:10:02.981Z,22.44
2023-06-07T11:11:03.103Z,22.44
2023-06-07T11:12:02.791Z,22.47
2023-06-07T11:13:02.770Z,22.48
2023-06-07T11:14:02.760Z,22.53
2023-06-07T11:15:02.774Z,22.55
2023-06-07T11:16:02.785Z,22.59
2023-06-07T11:17:02.816Z,22.60
2023-06-07T11:18:02.764Z,22.62
2023-06-07T11:19:02.708Z,22.69
2023-06-07T11:20:03.060Z,22.76
2023-06-07T11:21:02.760Z,22.85
2023-06-07T11:22:02.731Z,22.90
2023-06-07T11:23:02.667Z,22.98
2023-06-07T11:24:02.671Z,23.02
2023-06-07T11:25:02.692Z,23.05
2023-06-07T11:26:02.650Z,23.13
2023-06-07T11:27:02.654Z,23.17
2023-06-07T11:28:02.705Z,23.21
2023-06-07T11:29:02.616Z,23.28
2023-06-07T11:30:02.845Z,23.40
2023-06-07T11:31:02.652Z,23.48
2023-06-07T11:32:02.721Z,23.58
2023-06-07T11:33:02.606Z,23.69
2023-06-07T11:34:02.558Z,23.80
2023-06-07T11:35:02.651Z,23.92
2023-06-07T11:36:02.568Z,23.96
2023-06-07T11:37:02.525Z,24.02
2023-06-07T11:38:02.516Z,24.03
2023-06-07T11:39:02.510Z,24.01
2023-06-07T11:40:02.609Z,23.88
2023-06-07T11:41:02.517Z,23.81
2023-06-07T11:42:02.479Z,23.77
2023-06-07T11:43:02.464Z,23.78
2023-06-07T11:44:02.451Z,23.76
2023-06-07T11:45:02.438Z,23.77
2023-06-07T11:46:02.439Z,23.80
2023-06-07T11:47:02.496Z,23.86
2023-06-07T11:48:02.553Z,23.84
2023-06-07T11:49:02.540Z,23.83
2023-06-07T11:50:02.675Z,23.81
2023-06-07T11:51:02.379Z,23.78
2023-06-07T11:52:02.410Z,23.77
2023-06-07T11:53:02.356Z,23.74
2023-06-07T11:54:02.360Z,23.74
2023-06-07T11:55:02.348Z,23.73
2023-06-07T11:56:02.328Z,23.71
2023-06-07T11:57:02.418Z,23.71
2023-06-07T11:58:02.325Z,23.69
2023-06-07T11:59:02.302Z,23.66
2023-06-07T12:00:02.588Z,23.63
2023-06-07T12:01:02.275Z,23.61
2023-06-07T12:02:02.309Z,23.59
2023-06-07T12:03:02.608Z,23.58
2023-06-07T12:05:02.289Z,23.59
2023-06-07T12:06:02.257Z,23.59
2023-06-07T12:07:02.224Z,23.58
2023-06-07T12:08:02.207Z,23.59
2023-06-07T12:09:02.213Z,23.61
2023-06-07T12:10:02.227Z,23.59
2023-06-07T12:11:02.176Z,23.61
2023-06-07T12:12:02.163Z,23.59
2023-06-07T12:13:02.152Z,23.58
2023-06-07T12:14:02.163Z,23.55
2023-06-07T12:15:02.184Z,23.55
2023-06-07T12:16:02.335Z,23.55
2023-06-07T12:17:02.183Z,23.56
2023-06-07T12:18:02.177Z,23.59
2023-06-07T12:19:02.101Z,23.58
2023-06-07T12:20:02.112Z,23.58
2023-06-07T12:21:02.126Z,23.59
2023-06-07T12:22:02.064Z,23.61
2023-06-07T12:23:02.057Z,23.59
2023-06-07T12:24:02.075Z,23.56
2023-06-07T12:25:02.038Z,23.56
2023-06-07T12:26:02.086Z,23.54
2023-06-07T12:27:02.047Z,23.50
2023-06-07T12:28:01.992Z,23.50
2023-06-07T12:29:02.053Z,23.50
2023-06-07T12:30:02.034Z,23.55
2023-06-07T12:31:02.006Z,23.61
2023-06-07T12:32:01.956Z,23.63
2023-06-07T12:33:02.136Z,23.66
2023-06-07T12:34:01.980Z,23.69
2023-06-07T12:35:01.956Z,23.73
2023-06-07T12:36:01.919Z,23.77
2023-06-07T12:37:01.937Z,23.81
2023-06-07T12:38:01.893Z,23.86
2023-06-07T12:39:01.890Z,23.91
2023-06-07T12:40:01.892Z,23.96
2023-06-07T12:41:01.945Z,24.02
2023-06-07T12:42:01.859Z,24.14
2023-06-07T12:43:01.865Z,24.39
2023-06-07T12:44:01.833Z,24.58
2023-06-07T12:45:01.928Z,24.69
2023-06-07T12:46:01.818Z,24.76
2023-06-07T12:47:01.882Z,24.80
2023-06-07T12:48:01.823Z,24.84
2023-06-07T12:49:01.789Z,24.85
2023-06-07T12:50:01.814Z,24.84
2023-06-07T12:51:01.796Z,24.84
2023-06-07T12:52:01.774Z,24.78
2023-06-07T12:53:01.760Z,24.78